Time;durP1;ratioP1;P1;durP2;ratioP2;P2;SDS_P1;SDS_P2;PMS_P1;PMS_P2;Temp;Humidity;BMP_temperature;BMP_pressure;BME280_temperature;BME280_humidity;BME280_pressure;Samples;Min_cycle;Max_cycle;Signal;HPM_P1;HPM_P2
2022/07/17 00:00:49;;;;;;;;;;;;;;;;;;5033018;28;1134;-73
2022/07/17 00:03:16;;;;;;;;;;;;;;;;;;5050643;28;1060;-73
2022/07/17 00:05:43;;;;;;;;;;;;;;;;;;5050818;28;1222;-73
2022/07/17 00:08:11;;;;;;;;;;;;;;;;;;5050066;28;1106;-73
2022/07/17 00:10:37;;;;;;;;;;;;;;;;;;5032790;28;1156;-73
2022/07/17 00:13:04;;;;;;;;;;;;;;;;;;5050592;28;1127;-74
2022/07/17 00:15:30;;;;;;;;;;;;;;;;;;5054538;28;1983;-73
2022/07/17 00:17:56;;;;;;;;;;;;;;;;;;5054014;28;886;-73
2022/07/17 00:20:24;;;;;;;;;;;;;;;;;;5054557;28;1115;-74
2022/07/17 00:22:51;;;;;;;;;;;;;;;;;;5054633;28;1079;-74
2022/07/17 00:25:18;;;;;;;;;;;;;;;;;;5054508;28;845;-73
2022/07/17 00:27:44;;;;;;;;;;;;;;;;;;5053677;28;1434;-73
2022/07/17 00:30:12;;;;;;;;;;;;;;;;;;5053939;28;1514;-72
2022/07/17 00:32:38;;;;;;;;;;;;;;;;;;5054563;28;875;-73
2022/07/17 00:35:05;;;;;;;;;;;;;;;;;;5054297;28;1981;-73
2022/07/17 00:37:31;;;;;;;;;;;;;;;;;;5053694;28;1301;-73
2022/07/17 00:39:57;;;;;;;;;;;;;;;;;;5054205;28;1072;-73
2022/07/17 00:42:25;;;;;;;;;;;;;;;;;;5071757;28;1177;-73
2022/07/17 00:44:51;;;;;;;;;;;;;;;;;;5074266;28;802;-73
2022/07/17 00:47:19;;;;;;;;;;;;;;;;;;5055235;28;1312;-74
2022/07/17 00:49:45;;;;;;;;;;;;;;;;;;5074114;28;940;-72
2022/07/17 00:52:12;;;;;;;;;;;;;;;;;;5074019;28;778;-72
2022/07/17 00:54:38;;;;;;;;;;;;;;;;;;5073993;28;1909;-73
2022/07/17 00:57:05;;;;;;;;;;;;;;;;;;5073198;28;1254;-74
2022/07/17 00:59:34;;;;;;;;;;;;;;;;;;5056051;28;869;-73
2022/07/17 01:02:00;;;;;;;;;;;;;;;;;;5073904;28;1067;-73
2022/07/17 01:04:26;;;;;;;;;;;;;;;;;;5074031;28;1055;-73
2022/07/17 01:06:52;;;;;;;;;;;;;;;;;;5073198;28;1328;-73
2022/07/17 01:09:18;;;;;;;;;;;;;;;;;;5073340;28;1055;-73
2022/07/17 01:11:44;;;;;;;;;;;;;;;;;;5072663;28;774;-72
2022/07/17 01:14:11;;;;;;;;;;;;;;;;;;5073377;28;1973;-73
2022/07/17 01:16:38;;;;;;;;;;;;;;;;;;5072827;28;1354;-73
2022/07/17 01:19:05;;;;;;;;;;;;;;;;;;5073391;28;944;-72
2022/07/17 01:21:39;;;;;;;;;;;;;;;;;;5055610;28;949;-72
2022/07/17 01:24:05;;;;;;;;;;;;;;;;;;5055331;28;1091;-73
2022/07/17 01:26:31;;;;;;;;;;;;;;;;;;5054094;28;1394;-73
2022/07/17 01:28:57;;;;;;;;;;;;;;;;;;5073587;28;1059;-73
2022/07/17 01:31:24;;;;;;;;;;;;;;;;;;5073378;28;814;-73
2022/07/17 01:33:50;;;;;;;;;;;;;;;;;;5073473;28;1978;-74
2022/07/17 01:36:16;;;;;;;;;;;;;;;;;;5072445;28;1274;-73
2022/07/17 01:38:43;;;;;;;;;;;;;;;;;;5073274;28;956;-73
2022/07/17 01:41:10;;;;;;;;;;;;;;;;;;5065664;28;1130;-75
2022/07/17 01:43:36;;;;;;;;;;;;;;;;;;5053259;28;937;-74
2022/07/17 01:46:02;;;;;;;;;;;;;;;;;;5052834;28;1353;-73
2022/07/17 01:48:29;;;;;;;;;;;;;;;;;;5052324;28;827;-75
2022/07/17 01:50:56;;;;;;;;;;;;;;;;;;5052910;28;864;-73
2022/07/17 01:53:22;;;;;;;;;;;;;;;;;;5052880;28;927;-73
2022/07/17 01:55:49;;;;;;;;;;;;;;;;;;5052694;28;1981;-73
2022/07/17 01:58:16;;;;;;;;;;;;;;;;;;5051882;28;763;-73
2022/07/17 02:00:42;;;;;;;;;;;;;;;;;;5052769;28;1263;-74
2022/07/17 02:03:08;;;;;;;;;;;;;;;;;;5052664;28;822;-73
2022/07/17 02:05:34;;;;;;;;;;;;;;;;;;5052590;28;1422;-74
2022/07/17 02:08:00;;;;;;;;;;;;;;;;;;5051868;28;902;-74
2022/07/17 02:10:27;;;;;;;;;;;;;;;;;;5052900;28;965;-73
2022/07/17 02:12:55;;;;;;;;;;;;;;;;;;5051808;28;944;-74
2022/07/17 02:15:21;;;;;;;;;;;;;;;;;;5052520;28;1922;-73
2022/07/17 02:17:47;;;;;;;;;;;;;;;;;;5051750;28;1376;-73
2022/07/17 02:20:16;;;;;;;;;;;;;;;;;;5052299;28;783;-73
2022/07/17 02:22:42;;;;;;;;;;;;;;;;;;5052171;28;1491;-73
2022/07/17 02:25:08;;;;;;;;;;;;;;;;;;5052342;28;1139;-72
2022/07/17 02:27:35;;;;;;;;;;;;;;;;;;5051477;28;1344;-73
2022/07/17 02:30:03;;;;;;;;;;;;;;;;;;5052285;28;1005;-72
2022/07/17 02:32:29;;;;;;;;;;;;;;;;;;5052162;28;1059;-72
2022/07/17 02:34:55;;;;;;;;;;;;;;;;;;5052027;28;1914;-72
2022/07/17 02:37:21;;;;;;;;;;;;;;;;;;5050252;28;1371;-72
2022/07/17 02:39:52;;;;;;;;;;;;;;;;;;5052142;28;1126;-72
2022/07/17 02:42:20;;;;;;;;;;;;;;;;;;5068738;28;1194;-72
2022/07/17 02:44:46;;;;;;;;;;;;;;;;;;5071976;28;1123;-73
2022/07/17 02:47:14;;;;;;;;;;;;;;;;;;5070891;28;1296;-72
2022/07/17 02:49:40;;;;;;;;;;;;;;;;;;5071883;28;993;-73
2022/07/17 02:52:06;;;;;;;;;;;;;;;;;;5053603;28;1593;-72
2022/07/17 02:54:32;;;;;;;;;;;;;;;;;;5071821;28;1909;-73
2022/07/17 02:56:58;;;;;;;;;;;;;;;;;;5070870;28;1266;-72
2022/07/17 02:59:24;;;;;;;;;;;;;;;;;;5071690;28;877;-73
2022/07/17 03:01:51;;;;;;;;;;;;;;;;;;5071662;28;1071;-73
2022/07/17 03:04:18;;;;;;;;;;;;;;;;;;5071421;28;981;-73
2022/07/17 03:06:44;;;;;;;;;;;;;;;;;;5052835;28;1417;-73
2022/07/17 03:09:11;;;;;;;;;;;;;;;;;;5071316;28;1095;-73
2022/07/17 03:11:37;;;;;;;;;;;;;;;;;;5070484;28;1154;-72
2022/07/17 03:14:03;;;;;;;;;;;;;;;;;;5071386;28;1118;-72
2022/07/17 03:16:29;;;;;;;;;;;;;;;;;;5070760;28;1972;-73
2022/07/17 03:18:55;;;;;;;;;;;;;;;;;;5071318;28;1083;-73
2022/07/17 03:21:23;;;;;;;;;;;;;;;;;;5071276;28;1012;-73
2022/07/17 03:23:49;;;;;;;;;;;;;;;;;;5071345;28;1004;-73
2022/07/17 03:26:15;;;;;;;;;;;;;;;;;;5070231;28;1355;-73
2022/07/17 03:28:41;;;;;;;;;;;;;;;;;;5071195;28;1044;-74
2022/07/17 03:31:07;;;;;;;;;;;;;;;;;;5071147;28;1063;-72
2022/07/17 03:33:34;;;;;;;;;;;;;;;;;;5071333;28;1107;-74
2022/07/17 03:36:00;;;;;;;;;;;;;;;;;;5070779;28;1974;-75
2022/07/17 03:38:27;;;;;;;;;;;;;;;;;;5070589;28;1067;-74
2022/07/17 03:40:54;;;;;;;;;;;;;;;;;;5065787;28;1198;-73
2022/07/17 03:43:20;;;;;;;;;;;;;;;;;;5033191;28;1268;-73
2022/07/17 03:45:46;;;;;;;;;;;;;;;;;;5050889;28;1281;-73
2022/07/17 03:48:12;;;;;;;;;;;;;;;;;;5063404;22;3730;-72
2022/07/17 03:50:38;;;;;;;;;;;;;;;;;;5068234;28;1454;-73
2022/07/17 03:53:04;;;;;;;;;;;;;;;;;;5054118;28;1178;-73
2022/07/17 03:55:32;;;;;;;;;;;;;;;;;;5070982;28;1910;-72
2022/07/17 03:57:58;;;;;;;;;;;;;;;;;;5069094;28;1392;-72
2022/07/17 04:00:24;;;;;;;;;;;;;;;;;;5053001;28;1234;-73
2022/07/17 04:02:51;;;;;;;;;;;;;;;;;;5057715;28;2294;-71
2022/07/17 04:05:17;;;;;;;;;;;;;;;;;;5053387;28;1149;-71
2022/07/17 04:07:43;;;;;;;;;;;;;;;;;;5070390;28;1185;-71
2022/07/17 04:10:10;;;;;;;;;;;;;;;;;;5070799;28;1316;-71
2022/07/17 04:12:38;;;;;;;;;;;;;;;;;;5070963;28;1055;-71
2022/07/17 04:15:04;;;;;;;;;;;;;;;;;;5052930;28;1985;-71
2022/07/17 04:17:31;;;;;;;;;;;;;;;;;;5070124;28;1072;-71
2022/07/17 04:19:57;;;;;;;;;;;;;;;;;;5052840;28;1384;-71
2022/07/17 04:22:23;;;;;;;;;;;;;;;;;;5070949;28;771;-71
2022/07/17 04:24:50;;;;;;;;;;;;;;;;;;5052837;28;1250;-71
2022/07/17 04:27:16;;;;;;;;;;;;;;;;;;5070233;28;903;-71
2022/07/17 04:29:43;;;;;;;;;;;;;;;;;;5052682;28;1318;-71
2022/07/17 04:32:10;;;;;;;;;;;;;;;;;;5070244;28;1518;-72
2022/07/17 04:34:36;;;;;;;;;;;;;;;;;;5052735;28;1164;-71
2022/07/17 04:37:02;;;;;;;;;;;;;;;;;;5069923;28;1973;-71
2022/07/17 04:39:29;;;;;;;;;;;;;;;;;;5070572;28;1294;-71
2022/07/17 04:41:55;;;;;;;;;;;;;;;;;;5070706;28;1110;-71
2022/07/17 04:44:21;;;;;;;;;;;;;;;;;;5070524;28;905;-71
2022/07/17 04:46:49;;;;;;;;;;;;;;;;;;5070105;28;1079;-71
2022/07/17 04:49:15;;;;;;;;;;;;;;;;;;5068228;28;2024;-71
2022/07/17 04:51:41;;;;;;;;;;;;;;;;;;5070526;28;1225;-71
2022/07/17 04:54:07;;;;;;;;;;;;;;;;;;5070586;28;993;-72
2022/07/17 04:56:33;;;;;;;;;;;;;;;;;;5069376;28;1922;-71
2022/07/17 04:59:00;;;;;;;;;;;;;;;;;;5070361;28;1475;-71
2022/07/17 05:01:26;;;;;;;;;;;;;;;;;;5072014;28;1239;-71
2022/07/17 05:03:53;;;;;;;;;;;;;;;;;;5074451;28;862;-71
2022/07/17 05:06:20;;;;;;;;;;;;;;;;;;5072111;28;1482;-71
2022/07/17 05:08:46;;;;;;;;;;;;;;;;;;5073939;28;1326;-72
2022/07/17 05:11:12;;;;;;;;;;;;;;;;;;5072738;28;1347;-72
2022/07/17 05:13:38;;;;;;;;;;;;;;;;;;5074007;28;1201;-71
2022/07/17 05:16:05;;;;;;;;;;;;;;;;;;5073774;28;1914;-71
2022/07/17 05:18:31;;;;;;;;;;;;;;;;;;5073580;28;1320;-71
2022/07/17 05:20:58;;;;;;;;;;;;;;;;;;5074023;28;842;-72
2022/07/17 05:23:24;;;;;;;;;;;;;;;;;;5072347;28;1229;-71
2022/07/17 05:25:51;;;;;;;;;;;;;;;;;;5073718;28;1072;-71
2022/07/17 05:28:17;;;;;;;;;;;;;;;;;;5072781;28;1289;-71
2022/07/17 05:30:43;;;;;;;;;;;;;;;;;;5073959;28;1055;-71
2022/07/17 05:33:09;;;;;;;;;;;;;;;;;;5073377;28;866;-72
2022/07/17 05:35:35;;;;;;;;;;;;;;;;;;5073570;28;1915;-72
2022/07/17 05:38:04;;;;;;;;;;;;;;;;;;5072665;28;1321;-71
2022/07/17 05:40:30;;;;;;;;;;;;;;;;;;5073603;28;933;-71
2022/07/17 05:42:58;;;;;;;;;;;;;;;;;;5073231;28;1048;-71
2022/07/17 05:45:24;;;;;;;;;;;;;;;;;;5073309;28;1083;-71
2022/07/17 05:47:50;;;;;;;;;;;;;;;;;;5072507;28;856;-71
2022/07/17 05:50:16;;;;;;;;;;;;;;;;;;5072871;28;1356;-71
2022/07/17 05:52:42;;;;;;;;;;;;;;;;;;5071797;28;1365;-71
2022/07/17 05:55:10;;;;;;;;;;;;;;;;;;5073151;28;1914;-71
2022/07/17 05:57:36;;;;;;;;;;;;;;;;;;5072523;28;1107;-71
2022/07/17 06:00:03;;;;;;;;;;;;;;;;;;5073039;28;1285;-71
2022/07/17 06:02:38;;;;;;;;;;;;;;;;;;5073168;28;663;-72
2022/07/17 06:05:04;;;;;;;;;;;;;;;;;;5072943;28;786;-72
2022/07/17 06:07:31;;;;;;;;;;;;;;;;;;5070959;28;1277;-72
2022/07/17 06:09:57;;;;;;;;;;;;;;;;;;5072491;28;1298;-72
2022/07/17 06:12:24;;;;;;;;;;;;;;;;;;5072478;28;1079;-72
2022/07/17 06:14:50;;;;;;;;;;;;;;;;;;5072930;28;886;-72
2022/07/17 06:17:17;;;;;;;;;;;;;;;;;;5072032;28;1914;-72
2022/07/17 06:19:43;;;;;;;;;;;;;;;;;;5072818;28;1282;-71
2022/07/17 06:22:09;;;;;;;;;;;;;;;;;;5072424;28;944;-72
2022/07/17 06:24:35;;;;;;;;;;;;;;;;;;5072596;28;885;-71
2022/07/17 06:27:01;;;;;;;;;;;;;;;;;;5063989;28;1424;-72
2022/07/17 06:29:29;;;;;;;;;;;;;;;;;;5072319;28;1368;-71
2022/07/17 06:31:55;;;;;;;;;;;;;;;;;;5072298;28;921;-71
2022/07/17 06:34:21;;;;;;;;;;;;;;;;;;5072086;28;1059;-71
2022/07/17 06:36:47;;;;;;;;;;;;;;;;;;5071528;28;1968;-71
2022/07/17 06:39:14;;;;;;;;;;;;;;;;;;5072057;28;1286;-71
2022/07/17 06:41:40;;;;;;;;;;;;;;;;;;5072274;28;929;-71
2022/07/17 06:44:06;;;;;;;;;;;;;;;;;;5072062;28;1122;-71
2022/07/17 06:46:34;;;;;;;;;;;;;;;;;;5071540;28;787;-72
2022/07/17 06:49:00;;;;;;;;;;;;;;;;;;5071877;28;1280;-71
2022/07/17 06:51:26;;;;;;;;;;;;;;;;;;5072145;28;1084;-72
2022/07/17 06:53:52;;;;;;;;;;;;;;;;;;5054134;28;1184;-71
2022/07/17 06:56:19;;;;;;;;;;;;;;;;;;5053394;28;1911;-72
2022/07/17 06:58:45;;;;;;;;;;;;;;;;;;5054414;28;1366;-71
2022/07/17 07:01:11;;;;;;;;;;;;;;;;;;5071655;28;779;-72
2022/07/17 07:03:39;;;;;;;;;;;;;;;;;;5071814;28;1020;-72
2022/07/17 07:06:05;;;;;;;;;;;;;;;;;;5071535;28;1242;-72
2022/07/17 07:08:31;;;;;;;;;;;;;;;;;;5071339;28;1336;-72
2022/07/17 07:10:57;;;;;;;;;;;;;;;;;;5071761;28;984;-71
2022/07/17 07:13:23;;;;;;;;;;;;;;;;;;5071815;28;1063;-72
2022/07/17 07:15:50;;;;;;;;;;;;;;;;;;5071528;28;1975;-72
2022/07/17 07:18:17;;;;;;;;;;;;;;;;;;5070668;28;1360;-71
2022/07/17 07:20:44;;;;;;;;;;;;;;;;;;5071580;28;1063;-72
2022/07/17 07:23:10;;;;;;;;;;;;;;;;;;5071053;28;718;-71
2022/07/17 07:25:37;;;;;;;;;;;;;;;;;;5071557;28;1067;-71
2022/07/17 07:28:03;;;;;;;;;;;;;;;;;;5070662;28;1361;-71
2022/07/17 07:30:29;;;;;;;;;;;;;;;;;;5071398;28;1108;-71
2022/07/17 07:32:55;;;;;;;;;;;;;;;;;;5071329;28;1063;-71
2022/07/17 07:35:22;;;;;;;;;;;;;;;;;;5071154;28;1008;-71
2022/07/17 07:37:50;;;;;;;;;;;;;;;;;;5052545;28;1981;-71
2022/07/17 07:40:16;;;;;;;;;;;;;;;;;;5071178;28;1301;-71
2022/07/17 07:42:42;;;;;;;;;;;;;;;;;;5053239;28;1634;-71
2022/07/17 07:45:09;;;;;;;;;;;;;;;;;;5071138;28;774;-71
2022/07/17 07:47:40;;;;;;;;;;;;;;;;;;5070361;28;1428;-71
2022/07/17 07:50:07;;;;;;;;;;;;;;;;;;5070971;28;1313;-71
2022/07/17 07:52:33;;;;;;;;;;;;;;;;;;5053126;28;1218;-71
2022/07/17 07:55:01;;;;;;;;;;;;;;;;;;5071071;28;817;-71
2022/07/17 07:57:27;;;;;;;;;;;;;;;;;;5052214;28;1930;-71
2022/07/17 07:59:53;;;;;;;;;;;;;;;;;;5070901;28;1412;-70
2022/07/17 08:02:19;;;;;;;;;;;;;;;;;;5070894;28;1064;-72
2022/07/17 08:04:45;;;;;;;;;;;;;;;;;;5071083;28;877;-71
2022/07/17 08:07:12;;;;;;;;;;;;;;;;;;5070293;28;1409;-71
2022/07/17 08:09:38;;;;;;;;;;;;;;;;;;5070999;28;1285;-70
2022/07/17 08:12:06;;;;;;;;;;;;;;;;;;5070828;28;848;-70
2022/07/17 08:14:32;;;;;;;;;;;;;;;;;;5070962;28;1024;-70
2022/07/17 08:16:58;;;;;;;;;;;;;;;;;;5070222;28;1910;-70
2022/07/17 08:19:24;;;;;;;;;;;;;;;;;;5070832;28;1288;-70
2022/07/17 08:21:50;;;;;;;;;;;;;;;;;;5070853;28;1071;-70
2022/07/17 08:24:16;;;;;;;;;;;;;;;;;;5070785;28;1443;-70
2022/07/17 08:26:43;;;;;;;;;;;;;;;;;;5069600;28;1524;-70
2022/07/17 08:29:10;;;;;;;;;;;;;;;;;;5070663;28;1293;-70
2022/07/17 08:31:36;;;;;;;;;;;;;;;;;;5051972;28;2088;-71
2022/07/17 08:34:02;;;;;;;;;;;;;;;;;;5070572;28;1152;-70
2022/07/17 08:36:29;;;;;;;;;;;;;;;;;;5055269;28;1914;-70
2022/07/17 08:38:55;;;;;;;;;;;;;;;;;;5056620;28;1338;-70
2022/07/17 08:41:22;;;;;;;;;;;;;;;;;;5074309;28;1146;-71
2022/07/17 08:43:48;;;;;;;;;;;;;;;;;;5056688;28;1190;-71
2022/07/17 08:46:16;;;;;;;;;;;;;;;;;;5073654;28;1032;-70
2022/07/17 08:48:42;;;;;;;;;;;;;;;;;;5074209;28;1404;-70
2022/07/17 08:51:09;;;;;;;;;;;;;;;;;;5056364;28;1299;-70
2022/07/17 08:53:35;;;;;;;;;;;;;;;;;;5074407;28;774;-70
2022/07/17 08:56:01;;;;;;;;;;;;;;;;;;5074158;28;1004;-70
2022/07/17 08:58:27;;;;;;;;;;;;;;;;;;5073428;28;1975;-70
2022/07/17 09:00:53;;;;;;;;;;;;;;;;;;5074214;28;884;-70
2022/07/17 09:03:23;;;;;;;;;;;;;;;;;;5073994;28;826;-71
2022/07/17 09:05:49;;;;;;;;;;;;;;;;;;5074203;28;1055;-70
2022/07/17 09:08:19;;;;;;;;;;;;;;;;;;5073209;28;1384;-70
2022/07/17 09:10:46;;;;;;;;;;;;;;;;;;5074008;28;1176;-70
2022/07/17 09:13:17;;;;;;;;;;;;;;;;;;5055809;28;1175;-70
2022/07/17 09:15:43;;;;;;;;;;;;;;;;;;5055929;28;1044;-71
2022/07/17 09:18:09;;;;;;;;;;;;;;;;;;5072768;28;1973;-71
2022/07/17 09:20:36;;;;;;;;;;;;;;;;;;5073933;28;1126;-70
2022/07/17 09:23:04;;;;;;;;;;;;;;;;;;5073294;28;1470;-70
2022/07/17 09:25:34;;;;;;;;;;;;;;;;;;5073510;28;1039;-71
2022/07/17 09:28:01;;;;;;;;;;;;;;;;;;5073079;28;1293;-71
2022/07/17 09:30:27;;;;;;;;;;;;;;;;;;5056104;28;1303;-71
2022/07/17 09:32:55;;;;;;;;;;;;;;;;;;5073523;28;1107;-71
2022/07/17 09:35:22;;;;;;;;;;;;;;;;;;5073436;28;953;-71
2022/07/17 09:37:49;;;;;;;;;;;;;;;;;;5072661;28;1968;-71
2022/07/17 09:41:09;;;;;;;;;;;;;;;;;;5073117;28;1929;-71
2022/07/17 09:43:02;;;;;;;;;;;;;;;;;;5073242;28;1075;-70
2022/07/17 09:45:28;;;;;;;;;;;;;;;;;;5072849;28;980;-70
2022/07/17 09:47:55;;;;;;;;;;;;;;;;;;5054412;28;1282;-70
2022/07/17 09:50:21;;;;;;;;;;;;;;;;;;5043602;22;3633;-72
2022/07/17 09:52:47;;;;;;;;;;;;;;;;;;4989730;28;994;-72
2022/07/17 09:55:14;;;;;;;;;;;;;;;;;;4990907;28;1124;-72
2022/07/17 09:57:41;;;;;;;;;;;;;;;;;;4972799;28;1964;-73
2022/07/17 10:00:11;;;;;;;;;;;;;;;;;;4990611;28;1320;-73
2022/07/17 10:02:41;;;;;;;;;;;;;;;;;;4988394;28;1851;-70
2022/07/17 10:05:08;;;;;;;;;;;;;;;;;;4976435;28;1432;-72
2022/07/17 10:07:34;;;;;;;;;;;;;;;;;;4981971;28;1181;-72
2022/07/17 10:10:00;;;;;;;;;;;;;;;;;;4990759;28;1320;-72
2022/07/17 10:12:28;;;;;;;;;;;;;;;;;;4973010;28;1475;-72
2022/07/17 10:14:54;;;;;;;;;;;;;;;;;;4990474;28;1107;-73
2022/07/17 10:17:21;;;;;;;;;;;;;;;;;;4989803;28;1929;-72
2022/07/17 10:19:48;;;;;;;;;;;;;;;;;;4990399;28;1423;-72
2022/07/17 10:22:14;;;;;;;;;;;;;;;;;;4972747;28;1518;-73
2022/07/17 10:24:47;;;;;;;;;;;;;;;;;;4970877;28;1052;-72
2022/07/17 10:27:18;;;;;;;;;;;;;;;;;;4970023;28;873;-73
2022/07/17 10:29:46;;;;;;;;;;;;;;;;;;4953610;28;1399;-73
2022/07/17 10:32:14;;;;;;;;;;;;;;;;;;4970789;28;896;-72
2022/07/17 10:34:42;;;;;;;;;;;;;;;;;;4970571;28;933;-72
2022/07/17 10:37:21;;;;;;;;;;;;;;;;;;4970129;28;1911;-72
2022/07/17 10:39:54;;;;;;;;;;;;;;;;;;4970747;28;1372;-72
2022/07/17 10:42:35;;;;;;;;;;;;;;;;;;4974987;28;695;-72
2022/07/17 10:45:08;;;;;;;;;;;;;;;;;;4976261;28;1567;-73
2022/07/17 10:47:42;;;;;;;;;;;;;;;;;;4957490;28;1291;-72
2022/07/17 10:50:08;;;;;;;;;;;;;;;;;;4971930;28;1332;-73
2022/07/17 10:52:35;;;;;;;;;;;;;;;;;;4971000;28;1037;-72
2022/07/17 10:55:04;;;;;;;;;;;;;;;;;;4970712;28;926;-71
2022/07/17 10:57:30;;;;;;;;;;;;;;;;;;4951617;28;1922;-72
2022/07/17 10:59:56;;;;;;;;;;;;;;;;;;4970290;28;1914;-73
2022/07/17 11:02:29;;;;;;;;;;;;;;;;;;4970413;28;972;-72
2022/07/17 11:04:56;;;;;;;;;;;;;;;;;;4970303;28;732;-72
2022/07/17 11:07:22;;;;;;;;;;;;;;;;;;4969917;28;862;-72
2022/07/17 11:09:48;;;;;;;;;;;;;;;;;;4970147;28;1326;-73
2022/07/17 11:12:16;;;;;;;;;;;;;;;;;;4970378;28;1396;-72
2022/07/17 11:14:42;;;;;;;;;;;;;;;;;;4970148;28;827;-70
2022/07/17 11:17:08;;;;;;;;;;;;;;;;;;4969746;28;1970;-72
2022/07/17 11:19:38;;;;;;;;;;;;;;;;;;4970188;28;1321;-71
2022/07/17 11:22:05;;;;;;;;;;;;;;;;;;4952885;28;1057;-72
2022/07/17 11:24:36;;;;;;;;;;;;;;;;;;4970191;28;933;-71
2022/07/17 11:27:02;;;;;;;;;;;;;;;;;;4952112;28;1296;-72
2022/07/17 11:29:28;;;;;;;;;;;;;;;;;;4970228;28;1306;-71
2022/07/17 11:31:55;;;;;;;;;;;;;;;;;;4952628;28;1242;-72
2022/07/17 11:34:21;;;;;;;;;;;;;;;;;;4970319;28;1060;-72
2022/07/17 11:36:49;;;;;;;;;;;;;;;;;;4969526;28;846;-72
2022/07/17 11:39:18;;;;;;;;;;;;;;;;;;4970045;28;2051;-71
2022/07/17 11:41:45;;;;;;;;;;;;;;;;;;4969687;28;1336;-72
2022/07/17 11:44:11;;;;;;;;;;;;;;;;;;4970094;28;1103;-72
2022/07/17 11:46:38;;;;;;;;;;;;;;;;;;4969279;28;1064;-72
2022/07/17 11:49:04;;;;;;;;;;;;;;;;;;4969701;28;1056;-72
2022/07/17 11:51:34;;;;;;;;;;;;;;;;;;4969704;28;1370;-72
2022/07/17 11:54:05;;;;;;;;;;;;;;;;;;4969756;28;860;-72
2022/07/17 11:56:31;;;;;;;;;;;;;;;;;;4969132;28;1040;-72
2022/07/17 11:58:57;;;;;;;;;;;;;;;;;;4969643;28;1915;-71
2022/07/17 12:01:23;;;;;;;;;;;;;;;;;;4969555;28;1332;-71
2022/07/17 12:03:56;;;;;;;;;;;;;;;;;;4969520;28;1052;-72
2022/07/17 12:06:24;;;;;;;;;;;;;;;;;;4969333;28;1067;-72
2022/07/17 12:08:51;;;;;;;;;;;;;;;;;;4971020;28;1142;-72
2022/07/17 12:11:18;;;;;;;;;;;;;;;;;;4973451;28;1403;-72
2022/07/17 12:13:46;;;;;;;;;;;;;;;;;;4973038;28;958;-71
2022/07/17 12:16:19;;;;;;;;;;;;;;;;;;4954630;28;1482;-72
2022/07/17 12:18:55;;;;;;;;;;;;;;;;;;4972803;28;1974;-72
2022/07/17 12:21:21;;;;;;;;;;;;;;;;;;4972747;28;1381;-70
2022/07/17 12:23:56;;;;;;;;;;;;;;;;;;4972823;28;1048;-71
2022/07/17 12:26:23;;;;;;;;;;;;;;;;;;4972232;28;1056;-73
2022/07/17 12:28:49;;;;;;;;;;;;;;;;;;4972811;28;1064;-70
2022/07/17 12:31:15;;;;;;;;;;;;;;;;;;4972629;28;1318;-72
2022/07/17 12:33:42;;;;;;;;;;;;;;;;;;4972618;28;1052;-71
2022/07/17 12:36:08;;;;;;;;;;;;;;;;;;4972139;28;1075;-72
2022/07/17 12:38:35;;;;;;;;;;;;;;;;;;4972587;28;1911;-71
2022/07/17 12:41:01;;;;;;;;;;;;;;;;;;4972655;28;1306;-72
2022/07/17 12:43:28;;;;;;;;;;;;;;;;;;4955317;28;870;-73
2022/07/17 12:45:54;;;;;;;;;;;;;;;;;;4972415;28;809;-72
2022/07/17 12:48:21;;;;;;;;;;;;;;;;;;4971894;28;1067;-70
2022/07/17 12:50:47;;;;;;;;;;;;;;;;;;4972011;28;1285;-72
2022/07/17 12:53:13;;;;;;;;;;;;;;;;;;4972579;28;1112;-72
2022/07/17 12:55:40;;;;;;;;;;;;;;;;;;4968711;28;1180;-71
2022/07/17 12:58:06;;;;;;;;;;;;;;;;;;4945045;28;1911;-72
2022/07/17 13:00:34;;;;;;;;;;;;;;;;;;4970561;28;1322;-72
2022/07/17 13:03:00;;;;;;;;;;;;;;;;;;4952946;28;1405;-73
2022/07/17 13:05:26;;;;;;;;;;;;;;;;;;4975064;28;1453;-72
2022/07/17 13:07:52;;;;;;;;;;;;;;;;;;4972613;28;1181;-72
2022/07/17 13:10:19;;;;;;;;;;;;;;;;;;4970332;28;1507;-73
2022/07/17 13:12:45;;;;;;;;;;;;;;;;;;4969307;28;1255;-71
2022/07/17 13:15:12;;;;;;;;;;;;;;;;;;4971719;28;1389;-72
2022/07/17 13:17:39;;;;;;;;;;;;;;;;;;4967703;28;1911;-72
2022/07/17 13:20:06;;;;;;;;;;;;;;;;;;4952107;28;1301;-72
2022/07/17 13:22:33;;;;;;;;;;;;;;;;;;4952789;28;1454;-72
2022/07/17 13:24:59;;;;;;;;;;;;;;;;;;4951359;28;1558;-72
2022/07/17 13:27:25;;;;;;;;;;;;;;;;;;4965264;28;1395;-72
2022/07/17 13:29:51;;;;;;;;;;;;;;;;;;4959469;28;1417;-72
2022/07/17 13:32:17;;;;;;;;;;;;;;;;;;4953864;28;1223;-72
2022/07/17 13:34:45;;;;;;;;;;;;;;;;;;4961364;28;1223;-72
2022/07/17 13:37:11;;;;;;;;;;;;;;;;;;4944242;28;1451;-72
2022/07/17 13:39:37;;;;;;;;;;;;;;;;;;4963470;28;1970;-72
2022/07/17 13:42:04;;;;;;;;;;;;;;;;;;4968051;28;1055;-72
2022/07/17 13:44:30;;;;;;;;;;;;;;;;;;4969890;28;1427;-73
2022/07/17 13:46:56;;;;;;;;;;;;;;;;;;4970602;28;1114;-72
2022/07/17 13:49:23;;;;;;;;;;;;;;;;;;4970768;28;1491;-72
2022/07/17 13:51:50;;;;;;;;;;;;;;;;;;4971028;28;1490;-71
2022/07/17 13:54:16;;;;;;;;;;;;;;;;;;4972888;28;1130;-73
2022/07/17 13:56:43;;;;;;;;;;;;;;;;;;4953239;28;1399;-72
2022/07/17 13:59:09;;;;;;;;;;;;;;;;;;4973478;28;1914;-72
2022/07/17 14:01:35;;;;;;;;;;;;;;;;;;4971191;28;1311;-73
2022/07/17 14:04:01;;;;;;;;;;;;;;;;;;4949616;28;1415;-72
2022/07/17 14:06:27;;;;;;;;;;;;;;;;;;4962058;28;1223;-73
2022/07/17 14:08:55;;;;;;;;;;;;;;;;;;4963881;28;1429;-73
2022/07/17 14:11:21;;;;;;;;;;;;;;;;;;4960648;28;1601;-71
2022/07/17 14:13:47;;;;;;;;;;;;;;;;;;4969826;28;1779;-72
2022/07/17 14:16:14;;;;;;;;;;;;;;;;;;4967037;28;1445;-72
2022/07/17 14:18:57;;;;;;;;;;;;;;;;;;4971122;28;1919;-72
2022/07/17 14:21:24;;;;;;;;;;;;;;;;;;4970687;28;1334;-72
2022/07/17 14:23:50;;;;;;;;;;;;;;;;;;4970825;28;929;-72
2022/07/17 14:26:17;;;;;;;;;;;;;;;;;;4970219;28;1067;-72
2022/07/17 14:28:43;;;;;;;;;;;;;;;;;;4970909;28;722;-71
2022/07/17 14:31:10;;;;;;;;;;;;;;;;;;4970857;28;1307;-72
2022/07/17 14:33:36;;;;;;;;;;;;;;;;;;4953644;28;1266;-71
2022/07/17 14:36:02;;;;;;;;;;;;;;;;;;4953364;28;1124;-72
2022/07/17 14:38:28;;;;;;;;;;;;;;;;;;4970081;28;1910;-72
2022/07/17 14:40:54;;;;;;;;;;;;;;;;;;4971546;28;1292;-71
2022/07/17 14:43:22;;;;;;;;;;;;;;;;;;4972756;28;1130;-71
2022/07/17 14:45:48;;;;;;;;;;;;;;;;;;4972858;28;1044;-72
2022/07/17 14:48:14;;;;;;;;;;;;;;;;;;4970218;28;858;-73
2022/07/17 14:50:41;;;;;;;;;;;;;;;;;;4969987;28;1392;-72
2022/07/17 14:53:07;;;;;;;;;;;;;;;;;;4966705;28;1331;-73
2022/07/17 14:55:33;;;;;;;;;;;;;;;;;;4968915;28;1338;-74
2022/07/17 14:57:59;;;;;;;;;;;;;;;;;;4963190;28;1989;-72
2022/07/17 15:00:27;;;;;;;;;;;;;;;;;;4970489;28;1384;-72
2022/07/17 15:02:53;;;;;;;;;;;;;;;;;;4953023;28;1320;-73
2022/07/17 15:05:19;;;;;;;;;;;;;;;;;;4948743;28;1413;-72
2022/07/17 15:07:45;;;;;;;;;;;;;;;;;;4960641;28;1290;-73
2022/07/17 15:10:12;;;;;;;;;;;;;;;;;;4959438;28;1488;-72
2022/07/17 15:12:38;;;;;;;;;;;;;;;;;;4968913;28;1474;-73
2022/07/17 15:15:04;;;;;;;;;;;;;;;;;;4969184;28;1358;-74
2022/07/17 15:17:32;;;;;;;;;;;;;;;;;;4968598;28;1328;-73
2022/07/17 15:19:58;;;;;;;;;;;;;;;;;;4992085;28;1930;-74
2022/07/17 15:22:24;;;;;;;;;;;;;;;;;;4969550;28;1440;-72
2022/07/17 15:24:50;;;;;;;;;;;;;;;;;;4966683;28;1579;-73
2022/07/17 15:27:17;;;;;;;;;;;;;;;;;;4968324;28;1494;-73
2022/07/17 15:29:43;;;;;;;;;;;;;;;;;;4969046;28;1485;-72
2022/07/17 15:32:09;;;;;;;;;;;;;;;;;;4970184;28;1224;-72
2022/07/17 15:34:37;;;;;;;;;;;;;;;;;;4966428;28;1112;-70
2022/07/17 15:37:04;;;;;;;;;;;;;;;;;;4957695;28;1442;-73
2022/07/17 15:39:30;;;;;;;;;;;;;;;;;;4961412;28;1960;-71
2022/07/17 15:41:56;;;;;;;;;;;;;;;;;;4961959;28;1399;-71
2022/07/17 15:44:22;;;;;;;;;;;;;;;;;;4966093;28;1252;-71
2022/07/17 15:46:48;;;;;;;;;;;;;;;;;;4966146;28;1451;-72
2022/07/17 15:49:15;;;;;;;;;;;;;;;;;;4952867;28;2112;-72
2022/07/17 15:51:42;;;;;;;;;;;;;;;;;;4988737;22;2117;-76
2022/07/17 15:54:09;;;;;;;;;;;;;;;;;;4986241;28;1384;-76
2022/07/17 15:56:35;;;;;;;;;;;;;;;;;;4981955;28;1443;-77
2022/07/17 15:59:01;;;;;;;;;;;;;;;;;;4989337;28;1980;-77
2022/07/17 16:01:28;;;;;;;;;;;;;;;;;;4971408;28;1342;-76
2022/07/17 16:03:54;;;;;;;;;;;;;;;;;;4966282;28;2636;-76
2022/07/17 16:06:20;;;;;;;;;;;;;;;;;;5000028;28;1491;-77
2022/07/17 16:08:48;;;;;;;;;;;;;;;;;;4967922;28;1368;-77
2022/07/17 16:11:14;;;;;;;;;;;;;;;;;;4968209;28;1492;-76
2022/07/17 16:13:40;;;;;;;;;;;;;;;;;;4942649;28;1548;-75
2022/07/17 16:16:06;;;;;;;;;;;;;;;;;;4959696;28;1407;-75
2022/07/17 16:18:33;;;;;;;;;;;;;;;;;;4972881;28;1976;-75
2022/07/17 16:20:59;;;;;;;;;;;;;;;;;;4962486;28;1431;-76
2022/07/17 16:23:25;;;;;;;;;;;;;;;;;;4973407;28;1424;-76
2022/07/17 16:25:52;;;;;;;;;;;;;;;;;;4975473;28;1438;-76
2022/07/17 16:28:19;;;;;;;;;;;;;;;;;;4976379;28;1122;-77
2022/07/17 16:30:45;;;;;;;;;;;;;;;;;;4969537;28;1366;-75
2022/07/17 16:33:11;;;;;;;;;;;;;;;;;;4968581;28;1580;-76
2022/07/17 16:35:39;;;;;;;;;;;;;;;;;;4972866;28;1084;-75
2022/07/17 16:38:05;;;;;;;;;;;;;;;;;;4969771;28;1475;-76
2022/07/17 16:40:31;;;;;;;;;;;;;;;;;;4988592;28;1914;-76
2022/07/17 16:42:58;;;;;;;;;;;;;;;;;;4988332;28;1085;-76
2022/07/17 16:45:25;;;;;;;;;;;;;;;;;;4976186;28;1510;-77
2022/07/17 16:47:51;;;;;;;;;;;;;;;;;;4984652;28;1217;-77
2022/07/17 16:50:17;;;;;;;;;;;;;;;;;;4971276;28;1531;-76
2022/07/17 16:52:43;;;;;;;;;;;;;;;;;;4970727;28;1386;-76
2022/07/17 16:55:10;;;;;;;;;;;;;;;;;;4976773;28;1491;-76
2022/07/17 16:57:36;;;;;;;;;;;;;;;;;;4985459;28;1103;-75
2022/07/17 17:00:05;;;;;;;;;;;;;;;;;;4991613;28;1910;-76
2022/07/17 17:02:31;;;;;;;;;;;;;;;;;;4989610;28;1313;-75